Time;durP1;ratioP1;P1;durP2;ratioP2;P2;SDS_P1;SDS_P2;PMS_P1;PMS_P2;Temp;Humidity;BMP_temperature;BMP_pressure;BME280_temperature;BME280_humidity;BME280_pressure;Samples;Min_cycle;Max_cycle;Signal;HPM_P1;HPM_P2
2023/11/29 00:00:46;;;;;;;2.05;1.60;;;;;;;;;;10071154;28;20515;-75
2023/11/29 00:05:38;;;;;;;1.60;1.50;;;;;;;;;;10070761;28;20132;-76
2023/11/29 00:10:36;;;;;;;1.67;1.15;;;;;;;;;;10070457;28;20056;-75
2023/11/29 00:15:28;;;;;;;1.77;1.20;;;;;;;;;;10070229;28;20048;-75
2023/11/29 00:20:20;;;;;;;4.55;1.88;;;;;;;;;;10070024;28;20054;-75
2023/11/29 00:25:12;;;;;;;3.78;2.00;;;;;;;;;;10069515;28;20451;-75
2023/11/29 00:30:05;;;;;;;1.30;1.20;;;;;;;;;;10070391;28;20037;-75
2023/11/29 00:34:56;;;;;;;1.45;1.35;;;;;;;;;;10069238;28;20061;-75
2023/11/29 00:39:48;;;;;;;1.40;1.30;;;;;;;;;;10069236;28;20475;-75
2023/11/29 00:44:40;;;;;;;1.30;1.17;;;;;;;;;;10068198;28;20468;-75
2023/11/29 00:49:32;;;;;;;1.88;1.40;;;;;;;;;;10068494;28;20037;-74
2023/11/29 00:54:24;;;;;;;1.60;1.45;;;;;;;;;;10068924;28;20038;-75
2023/11/29 00:59:16;;;;;;;1.70;1.60;;;;;;;;;;10069371;28;20365;-75
2023/11/29 01:04:08;;;;;;;1.20;1.20;;;;;;;;;;10066504;28;20046;-74
2023/11/29 01:09:00;;;;;;;1.77;1.30;;;;;;;;;;10065411;28;20049;-75
2023/11/29 01:13:52;;;;;;;1.50;1.40;;;;;;;;;;10040873;28;20038;-75
2023/11/29 01:18:44;;;;;;;1.38;1.10;;;;;;;;;;10054402;28;20049;-74
2023/11/29 01:23:36;;;;;;;1.10;1.10;;;;;;;;;;10066901;28;20103;-75
2023/11/29 01:28:28;;;;;;;1.10;1.10;;;;;;;;;;10067845;28;20158;-74
2023/11/29 01:33:20;;;;;;;1.30;1.20;;;;;;;;;;10066009;28;20433;-75
2023/11/29 01:38:12;;;;;;;1.92;1.40;;;;;;;;;;10066109;28;20068;-75
2023/11/29 01:43:04;;;;;;;1.40;1.30;;;;;;;;;;10065116;28;20041;-74
2023/11/29 01:47:56;;;;;;;1.55;1.45;;;;;;;;;;10059991;28;20108;-75
2023/11/29 01:52:48;;;;;;;1.05;1.05;;;;;;;;;;10063590;28;20045;-75
2023/11/29 01:57:41;;;;;;;1.42;1.20;;;;;;;;;;10064422;28;20375;-75
2023/11/29 02:02:33;;;;;;;1.05;1.00;;;;;;;;;;10062849;28;20372;-75
2023/11/29 02:07:26;;;;;;;1.30;1.30;;;;;;;;;;10062873;28;20073;-75
2023/11/29 02:12:20;;;;;;;1.25;1.15;;;;;;;;;;10064366;28;20045;-75
2023/11/29 02:17:12;;;;;;;1.38;1.20;;;;;;;;;;10062016;28;20029;-75
2023/11/29 02:22:04;;;;;;;2.03;1.80;;;;;;;;;;10058856;28;20055;-75
2023/11/29 02:26:56;;;;;;;2.03;1.83;;;;;;;;;;10060567;28;20077;-74
2023/11/29 02:31:48;;;;;;;1.30;1.30;;;;;;;;;;10063361;28;20116;-75
2023/11/29 02:36:39;;;;;;;1.30;1.20;;;;;;;;;;10062964;28;20464;-74
2023/11/29 02:41:36;;;;;;;1.30;1.23;;;;;;;;;;10063493;28;20091;-74
2023/11/29 02:46:28;;;;;;;1.30;1.23;;;;;;;;;;10059596;28;21503;-74
2023/11/29 02:51:20;;;;;;;1.60;1.50;;;;;;;;;;10052979;28;20041;-73
2023/11/29 02:56:12;;;;;;;1.10;1.10;;;;;;;;;;10061652;28;20136;-73
2023/11/29 03:01:04;;;;;;;1.10;1.00;;;;;;;;;;10060793;28;20153;-73
2023/11/29 03:05:56;;;;;;;1.10;1.10;;;;;;;;;;10061279;28;20053;-73
2023/11/29 03:10:48;;;;;;;1.50;1.38;;;;;;;;;;10064902;28;20456;-74
2023/11/29 03:15:39;;;;;;;1.50;1.40;;;;;;;;;;10067443;28;20119;-74
2023/11/29 03:20:31;;;;;;;1.50;1.40;;;;;;;;;;10069699;28;20042;-75
2023/11/29 03:25:23;;;;;;;1.13;1.10;;;;;;;;;;10069612;28;20099;-74
2023/11/29 03:30:15;;;;;;;1.63;1.10;;;;;;;;;;10069079;28;20041;-73
2023/11/29 03:35:07;;;;;;;1.40;1.27;;;;;;;;;;10068769;28;20128;-74
2023/11/29 03:39:59;;;;;;;2.70;1.48;;;;;;;;;;10069466;28;20045;-74
2023/11/29 03:44:51;;;;;;;1.67;1.58;;;;;;;;;;10063541;28;20049;-74
2023/11/29 03:49:43;;;;;;;1.50;1.40;;;;;;;;;;10068171;28;20521;-74
2023/11/29 03:54:35;;;;;;;1.60;1.50;;;;;;;;;;10069369;28;20033;-73
2023/11/29 03:59:26;;;;;;;2.15;1.70;;;;;;;;;;10057383;28;20050;-73
2023/11/29 04:04:18;;;;;;;2.38;2.15;;;;;;;;;;10068868;28;20112;-74
2023/11/29 04:09:11;;;;;;;1.90;1.25;;;;;;;;;;10051155;28;20045;-74
2023/11/29 04:14:03;;;;;;;1.75;1.65;;;;;;;;;;10058424;28;20041;-74
2023/11/29 04:18:55;;;;;;;1.92;1.20;;;;;;;;;;10067442;28;20505;-73
2023/11/29 04:23:47;;;;;;;1.55;1.40;;;;;;;;;;10065784;28;20054;-74
2023/11/29 04:28:39;;;;;;;1.85;1.67;;;;;;;;;;10064764;28;20050;-74
2023/11/29 04:33:31;;;;;;;1.30;1.30;;;;;;;;;;10067382;28;20033;-73
2023/11/29 04:38:23;;;;;;;1.67;1.50;;;;;;;;;;10066735;28;20373;-74
2023/11/29 04:43:16;;;;;;;2.38;2.13;;;;;;;;;;10057189;28;20049;-73
2023/11/29 04:48:08;;;;;;;2.35;2.15;;;;;;;;;;10066878;28;20044;-73
2023/11/29 04:53:00;;;;;;;3.40;2.10;;;;;;;;;;10066753;28;20053;-74
2023/11/29 04:57:51;;;;;;;1.67;1.58;;;;;;;;;;10065176;28;20046;-76
2023/11/29 05:02:44;;;;;;;2.42;1.83;;;;;;;;;;10066364;28;20064;-74
2023/11/29 05:07:36;;;;;;;2.08;1.80;;;;;;;;;;10066632;28;20045;-75
2023/11/29 05:12:28;;;;;;;1.80;1.70;;;;;;;;;;10058207;28;20054;-74
2023/11/29 05:17:19;;;;;;;1.60;1.50;;;;;;;;;;10064270;28;20042;-74
2023/11/29 05:22:11;;;;;;;1.83;1.73;;;;;;;;;;10065363;28;20052;-74
2023/11/29 05:27:04;;;;;;;6.10;2.25;;;;;;;;;;10062535;28;20049;-74
2023/11/29 05:31:55;;;;;;;34.25;30.88;;;;;;;;;;10065237;28;20188;-74
2023/11/29 05:36:47;;;;;;;43.33;30.38;;;;;;;;;;10064455;28;20055;-74
2023/11/29 05:41:39;;;;;;;9.00;8.07;;;;;;;;;;10059736;28;20534;-74
2023/11/29 05:46:32;;;;;;;88.88;60.40;;;;;;;;;;10060951;28;20423;-74
2023/11/29 05:51:26;;;;;;;64.20;45.75;;;;;;;;;;10067588;28;20435;-74
2023/11/29 05:56:20;;;;;;;9.68;7.78;;;;;;;;;;10066211;28;20099;-76
2023/11/29 06:01:12;;;;;;;4.40;3.78;;;;;;;;;;10059265;28;20046;-74
2023/11/29 06:06:04;;;;;;;55.55;36.85;;;;;;;;;;10066660;28;20457;-74
2023/11/29 06:10:56;;;;;;;82.30;59.67;;;;;;;;;;10061548;28;20045;-73
2023/11/29 06:15:49;;;;;;;16.23;6.82;;;;;;;;;;10059479;28;20045;-73
2023/11/29 06:20:41;;;;;;;29.35;25.38;;;;;;;;;;10065994;28;20431;-70
2023/11/29 06:25:34;;;;;;;14.15;12.32;;;;;;;;;;10061988;28;20053;-71
2023/11/29 06:30:26;;;;;;;12.00;10.85;;;;;;;;;;10054453;28;20042;-72
2023/11/29 06:35:18;;;;;;;10.18;9.13;;;;;;;;;;10062189;28;20056;-71
2023/11/29 06:40:11;;;;;;;11.43;10.23;;;;;;;;;;10074878;28;20068;-72
2023/11/29 06:45:04;;;;;;;12.18;8.38;;;;;;;;;;10059490;28;20390;-71
2023/11/29 06:49:55;;;;;;;30.65;23.83;;;;;;;;;;10073091;28;20429;-72
2023/11/29 06:54:48;;;;;;;15.45;12.82;;;;;;;;;;10071218;28;20057;-71
2023/11/29 06:59:40;;;;;;;16.05;12.93;;;;;;;;;;10067394;28;20053;-71
2023/11/29 07:04:31;;;;;;;14.45;10.65;;;;;;;;;;10055414;28;20137;-71
2023/11/29 07:09:23;;;;;;;14.02;12.60;;;;;;;;;;10069094;28;20091;-71
2023/11/29 07:14:15;;;;;;;4.97;4.05;;;;;;;;;;10072176;28;20480;-72
2023/11/29 07:19:07;;;;;;;12.27;5.18;;;;;;;;;;10071265;28;20058;-71
2023/11/29 07:23:59;;;;;;;3.50;3.20;;;;;;;;;;10068520;28;20041;-71
2023/11/29 07:28:54;;;;;;;4.90;4.47;;;;;;;;;;10068881;28;20141;-71
2023/11/29 07:33:46;;;;;;;4.72;4.28;;;;;;;;;;10065703;28;20049;-71
2023/11/29 07:38:40;;;;;;;3.97;3.28;;;;;;;;;;10069703;28;20131;-71
2023/11/29 07:43:32;;;;;;;3.33;3.08;;;;;;;;;;10063776;28;20121;-71
2023/11/29 07:48:24;;;;;;;3.05;2.85;;;;;;;;;;9985280;28;20046;-72
2023/11/29 07:53:16;;;;;;;5.25;3.22;;;;;;;;;;9991948;28;20144;-72
2023/11/29 07:58:08;;;;;;;5.32;2.47;;;;;;;;;;9989485;28;20516;-72
2023/11/29 08:03:03;;;;;;;2.53;2.40;;;;;;;;;;9987257;28;20117;-72
2023/11/29 08:07:55;;;;;;;2.50;1.88;;;;;;;;;;9985268;28;20074;-72
2023/11/29 08:12:47;;;;;;;3.08;2.40;;;;;;;;;;9985110;28;20042;-71
2023/11/29 08:17:39;;;;;;;4.80;2.53;;;;;;;;;;9982835;28;20443;-71
2023/11/29 08:22:32;;;;;;;3.17;2.97;;;;;;;;;;9983194;28;20070;-72
2023/11/29 08:27:24;;;;;;;3.20;3.00;;;;;;;;;;9996692;28;20436;-72
2023/11/29 08:32:16;;;;;;;4.32;3.00;;;;;;;;;;9985793;28;20038;-72
2023/11/29 08:37:08;;;;;;;6.97;4.60;;;;;;;;;;10029705;28;59873;-72
2023/11/29 08:42:00;;;;;;;5.00;4.47;;;;;;;;;;10028613;28;20058;-71
2023/11/29 08:46:52;;;;;;;2.95;2.75;;;;;;;;;;10034345;28;20034;-72
2023/11/29 08:51:44;;;;;;;6.93;4.70;;;;;;;;;;10029779;28;20096;-71
2023/11/29 08:56:36;;;;;;;2.83;2.60;;;;;;;;;;10038819;28;20339;-72
2023/11/29 09:01:31;;;;;;;2.80;2.60;;;;;;;;;;10040278;28;20049;-72
2023/11/29 09:06:23;;;;;;;3.35;3.05;;;;;;;;;;10036178;28;20053;-72
2023/11/29 09:11:15;;;;;;;4.00;3.20;;;;;;;;;;10027979;28;20096;-72
2023/11/29 09:16:08;;;;;;;4.30;2.90;;;;;;;;;;10042100;28;20464;-72
2023/11/29 09:21:00;;;;;;;2.90;2.60;;;;;;;;;;10037219;28;20077;-72
2023/11/29 09:25:53;;;;;;;3.60;2.70;;;;;;;;;;10042937;28;20086;-72
2023/11/29 09:30:45;;;;;;;4.63;3.13;;;;;;;;;;10037592;28;20387;-72
2023/11/29 09:35:37;;;;;;;6.25;2.70;;;;;;;;;;10034855;28;20435;-72
2023/11/29 09:40:29;;;;;;;4.38;3.38;;;;;;;;;;10029091;28;20085;-72
2023/11/29 09:45:27;;;;;;;7.38;4.10;;;;;;;;;;10025832;28;20081;-73
2023/11/29 09:50:19;;;;;;;4.20;3.50;;;;;;;;;;10028652;28;20037;-71
2023/11/29 09:55:11;;;;;;;4.57;3.22;;;;;;;;;;10035447;28;20198;-71
2023/11/29 10:00:10;;;;;;;5.75;5.10;;;;;;;;;;10037212;28;20060;-72
2023/11/29 10:05:02;;;;;;;3.90;3.45;;;;;;;;;;10041186;28;20144;-71
2023/11/29 10:10:00;;;;;;;7.30;3.80;;;;;;;;;;10041661;28;20390;-71
2023/11/29 10:14:54;;;;;;;5.38;3.03;;;;;;;;;;10032155;28;20042;-71
2023/11/29 10:19:56;;;;;;;4.90;3.20;;;;;;;;;;10040545;28;20115;-72
2023/11/29 10:24:48;;;;;;;3.92;3.53;;;;;;;;;;10024594;28;20426;-73
2023/11/29 10:29:40;;;;;;;3.35;2.97;;;;;;;;;;10037593;28;20049;-73
2023/11/29 10:34:33;;;;;;;3.53;2.78;;;;;;;;;;10030878;28;20053;-73
2023/11/29 10:39:29;;;;;;;3.67;3.33;;;;;;;;;;10041399;28;20037;-74
2023/11/29 10:44:27;;;;;;;3.03;2.80;;;;;;;;;;10031568;28;20065;-74
2023/11/29 10:49:20;;;;;;;3.77;2.80;;;;;;;;;;10029057;28;20104;-71
2023/11/29 10:54:13;;;;;;;5.78;3.50;;;;;;;;;;10027816;28;20046;-71
2023/11/29 10:59:33;;;;;;;7.22;3.70;;;;;;;;;;10039640;28;20122;-72
2023/11/29 11:04:32;;;;;;;6.72;4.47;;;;;;;;;;10034341;28;20401;-72
2023/11/29 11:09:42;;;;;;;6.00;3.40;;;;;;;;;;10032517;28;20140;-71
2023/11/29 11:14:53;;;;;;;;;;;;;;;;;;10051290;28;20097;-71
2023/11/29 11:19:46;;;;;;;5.32;4.47;;;;;;;;;;10033448;28;20425;-71
2023/11/29 11:24:59;;;;;;;6.15;4.47;;;;;;;;;;10032376;28;20100;-71
2023/11/29 11:29:52;;;;;;;5.07;4.47;;;;;;;;;;10025393;28;20096;-70
2023/11/29 11:34:44;;;;;;;9.00;5.80;;;;;;;;;;10028974;28;20040;-70
2023/11/29 11:39:35;;;;;;;5.63;4.53;;;;;;;;;;10036756;28;20050;-70
2023/11/29 11:44:27;;;;;;;6.05;5.30;;;;;;;;;;10036044;28;20092;-70
2023/11/29 11:49:19;;;;;;;8.40;6.10;;;;;;;;;;10034977;28;20134;-71
2023/11/29 11:54:11;;;;;;;7.32;6.63;;;;;;;;;;10038697;28;58566;-71
2023/11/29 11:59:03;;;;;;;8.57;6.88;;;;;;;;;;10030756;28;20050;-70
2023/11/29 12:03:56;;;;;;;9.20;6.28;;;;;;;;;;10041428;28;20401;-71
2023/11/29 12:08:48;;;;;;;10.43;8.45;;;;;;;;;;10037777;28;20053;-70
2023/11/29 12:13:40;;;;;;;12.70;9.45;;;;;;;;;;10067700;28;20124;-70
2023/11/29 12:18:32;;;;;;;8.60;7.03;;;;;;;;;;10049020;28;20144;-71
2023/11/29 12:23:28;;;;;;;11.32;8.55;;;;;;;;;;10063242;28;20037;-71
2023/11/29 12:28:24;;;;;;;10.50;8.10;;;;;;;;;;10059628;28;20045;-72
2023/11/29 12:33:16;;;;;;;11.63;8.40;;;;;;;;;;10061627;28;20095;-71
2023/11/29 12:38:08;;;;;;;9.77;8.77;;;;;;;;;;10052153;28;20049;-71
2023/11/29 12:43:00;;;;;;;11.98;10.38;;;;;;;;;;10064282;28;20373;-71
2023/11/29 12:47:52;;;;;;;12.63;10.73;;;;;;;;;;10045140;28;20461;-71
2023/11/29 12:52:44;;;;;;;14.85;11.68;;;;;;;;;;10054752;28;20471;-72
2023/11/29 12:57:36;;;;;;;13.35;11.48;;;;;;;;;;10055872;28;20042;-71
2023/11/29 13:02:28;;;;;;;15.50;13.90;;;;;;;;;;10063694;28;20372;-72
2023/11/29 13:07:20;;;;;;;15.77;13.63;;;;;;;;;;10053774;28;20041;-72
2023/11/29 13:12:12;;;;;;;17.20;15.00;;;;;;;;;;10058477;28;20388;-71
2023/11/29 13:17:05;;;;;;;18.20;15.15;;;;;;;;;;10047476;28;20431;-72
2023/11/29 13:21:57;;;;;;;20.55;16.85;;;;;;;;;;10061710;28;20049;-72
2023/11/29 13:26:49;;;;;;;16.50;14.55;;;;;;;;;;10057442;28;20048;-72
2023/11/29 13:31:41;;;;;;;18.90;15.30;;;;;;;;;;10046819;28;20064;-72
2023/11/29 13:36:35;;;;;;;20.15;18.13;;;;;;;;;;10052813;28;20046;-71
2023/11/29 13:41:27;;;;;;;19.80;17.67;;;;;;;;;;10052960;28;20067;-72
2023/11/29 13:46:19;;;;;;;23.55;18.48;;;;;;;;;;10055326;28;20042;-72
2023/11/29 13:51:12;;;;;;;21.10;18.58;;;;;;;;;;10056406;28;20136;-73
2023/11/29 13:56:04;;;;;;;22.05;19.65;;;;;;;;;;10060294;28;20136;-72
2023/11/29 14:00:56;;;;;;;23.02;20.23;;;;;;;;;;10054263;28;20041;-72
2023/11/29 14:05:48;;;;;;;32.63;22.23;;;;;;;;;;10052695;28;20050;-72
2023/11/29 14:10:40;;;;;;;26.77;21.60;;;;;;;;;;10054637;28;20505;-72
2023/11/29 14:15:32;;;;;;;26.63;23.70;;;;;;;;;;10056392;28;20403;-72
2023/11/29 14:20:24;;;;;;;27.30;24.40;;;;;;;;;;10055466;28;20084;-72
2023/11/29 14:25:16;;;;;;;27.38;23.75;;;;;;;;;;10060286;28;20062;-73
2023/11/29 14:30:09;;;;;;;29.02;24.15;;;;;;;;;;10047333;28;20136;-72
2023/11/29 14:35:01;;;;;;;35.15;27.48;;;;;;;;;;10057819;28;20045;-72
2023/11/29 14:39:53;;;;;;;66.55;50.72;;;;;;;;;;10050957;28;20050;-72
2023/11/29 14:44:45;;;;;;;26.88;23.05;;;;;;;;;;10065092;28;20464;-72
2023/11/29 14:49:37;;;;;;;25.13;22.55;;;;;;;;;;10042095;28;20448;-72
2023/11/29 14:54:29;;;;;;;24.30;19.67;;;;;;;;;;10067464;28;20061;-72
2023/11/29 14:59:21;;;;;;;26.00;21.90;;;;;;;;;;10040330;28;20480;-72
2023/11/29 15:04:13;;;;;;;23.38;21.02;;;;;;;;;;10051800;28;20407;-73
2023/11/29 15:09:05;;;;;;;31.58;28.00;;;;;;;;;;10053328;28;20096;-73
2023/11/29 15:13:57;;;;;;;25.38;22.65;;;;;;;;;;10051478;28;20054;-74
2023/11/29 15:18:49;;;;;;;35.60;29.50;;;;;;;;;;10045833;28;20052;-73
2023/11/29 15:23:41;;;;;;;32.40;28.98;;;;;;;;;;10060372;28;20414;-73
2023/11/29 15:28:33;;;;;;;30.08;26.85;;;;;;;;;;10049950;28;20124;-73
2023/11/29 15:33:24;;;;;;;31.83;26.23;;;;;;;;;;10058389;28;20034;-73
2023/11/29 15:38:16;;;;;;;39.28;32.42;;;;;;;;;;10060048;28;20053;-73
2023/11/29 15:43:08;;;;;;;29.40;24.52;;;;;;;;;;10060491;28;20045;-73
2023/11/29 15:48:00;;;;;;;36.33;27.42;;;;;;;;;;10047228;28;20108;-73
2023/11/29 15:52:52;;;;;;;65.18;52.95;;;;;;;;;;10050609;28;20073;-73
2023/11/29 15:57:44;;;;;;;50.08;40.97;;;;;;;;;;10060635;28;20069;-73
2023/11/29 16:02:36;;;;;;;47.67;39.95;;;;;;;;;;10055844;28;20117;-73
2023/11/29 16:07:28;;;;;;;48.05;41.38;;;;;;;;;;10049743;28;20080;-74
2023/11/29 16:12:20;;;;;;;32.05;27.55;;;;;;;;;;10055814;28;20056;-74
2023/11/29 16:17:12;;;;;;;33.65;29.10;;;;;;;;;;10050790;28;20054;-75
2023/11/29 16:22:04;;;;;;;52.70;42.08;;;;;;;;;;10049193;28;20054;-74
2023/11/29 16:26:56;;;;;;;42.70;33.70;;;;;;;;;;10042388;28;20042;-74
2023/11/29 16:31:48;;;;;;;51.58;43.60;;;;;;;;;;10038135;28;20453;-74
2023/11/29 16:36:40;;;;;;;41.55;32.03;;;;;;;;;;10036505;28;20136;-74
2023/11/29 16:41:32;;;;;;;35.50;31.50;;;;;;;;;;10041025;28;20053;-74
2023/11/29 16:46:23;;;;;;;40.22;34.97;;;;;;;;;;10032039;28;20077;-74
2023/11/29 16:51:21;;;;;;;43.03;37.30;;;;;;;;;;10035478;28;20379;-74
2023/11/29 16:56:13;;;;;;;43.22;35.67;;;;;;;;;;10057099;28;20038;-74
2023/11/29 17:01:06;;;;;;;48.28;42.75;;;;;;;;;;10044025;28;20073;-74
2023/11/29 17:05:58;;;;;;;68.47;53.35;;;;;;;;;;10058498;28;20125;-74
2023/11/29 17:10:50;;;;;;;61.08;47.03;;;;;;;;;;10044508;28;20057;-74
2023/11/29 17:15:42;;;;;;;53.40;38.40;;;;;;;;;;10046892;28;20342;-74
2023/11/29 17:20:34;;;;;;;42.22;36.45;;;;;;;;;;10057881;28;20053;-74
2023/11/29 17:25:26;;;;;;;60.38;46.42;;;;;;;;;;10055828;28;20057;-74
2023/11/29 17:30:19;;;;;;;42.33;37.75;;;;;;;;;;10059561;28;20054;-74
2023/11/29 17:35:13;;;;;;;47.83;40.92;;;;;;;;;;10056942;28;20037;-74
2023/11/29 17:40:05;;;;;;;49.83;40.90;;;;;;;;;;10041476;28;20413;-74
2023/11/29 17:44:57;;;;;;;41.63;37.08;;;;;;;;;;10051460;28;20054;-74
2023/11/29 17:49:49;;;;;;;54.00;40.08;;;;;;;;;;10055409;28;20045;-74
2023/11/29 17:54:42;;;;;;;50.30;38.13;;;;;;;;;;10060567;28;20049;-74
2023/11/29 17:59:33;;;;;;;42.88;37.25;;;;;;;;;;10062689;28;20048;-75
2023/11/29 18:04:26;;;;;;;43.17;34.92;;;;;;;;;;10050168;28;20041;-74
2023/11/29 18:09:18;;;;;;;42.40;37.20;;;;;;;;;;10047664;28;20045;-73
2023/11/29 18:14:09;;;;;;;44.60;38.65;;;;;;;;;;10046595;28;20050;-73
2023/11/29 18:19:03;;;;;;;51.90;46.00;;;;;;;;;;10055659;28;20056;-73
2023/11/29 18:23:56;;;;;;;39.58;35.20;;;;;;;;;;10055926;28;20045;-73
2023/11/29 18:28:48;;;;;;;52.97;45.35;;;;;;;;;;10054480;28;20056;-73
2023/11/29 18:33:40;;;;;;;50.25;41.03;;;;;;;;;;10044103;28;20034;-73
2023/11/29 18:38:32;;;;;;;46.20;40.08;;;;;;;;;;10060341;28;20042;-74
2023/11/29 18:43:24;;;;;;;50.40;41.40;;;;;;;;;;10055001;28;20049;-74
2023/11/29 18:48:16;;;;;;;54.55;45.38;;;;;;;;;;10049877;28;20081;-74
2023/11/29 18:53:09;;;;;;;51.72;43.30;;;;;;;;;;10056597;28;20464;-74
2023/11/29 18:58:01;;;;;;;45.17;39.65;;;;;;;;;;10059644;28;20140;-73
2023/11/29 19:02:53;;;;;;;55.58;44.88;;;;;;;;;;10052661;28;20107;-73
2023/11/29 19:07:45;;;;;;;48.05;42.72;;;;;;;;;;10053365;28;20038;-73
2023/11/29 19:12:37;;;;;;;43.78;38.17;;;;;;;;;;10040488;28;20085;-73
2023/11/29 19:17:29;;;;;;;51.15;45.47;;;;;;;;;;10052821;28;20037;-73
2023/11/29 19:22:21;;;;;;;56.58;46.22;;;;;;;;;;10054960;28;20046;-73
2023/11/29 19:27:13;;;;;;;56.20;46.53;;;;;;;;;;10051766;28;20045;-73
2023/11/29 19:32:06;;;;;;;68.65;50.92;;;;;;;;;;10028346;28;20337;-73
2023/11/29 19:36:58;;;;;;;63.22;53.47;;;;;;;;;;10028343;28;20068;-73
2023/11/29 19:41:50;;;;;;;54.85;43.20;;;;;;;;;;10027634;28;20065;-73
2023/11/29 19:46:42;;;;;;;51.95;44.50;;;;;;;;;;10050108;28;20416;-73
2023/11/29 19:51:34;;;;;;;52.13;42.13;;;;;;;;;;10058906;28;20052;-73
2023/11/29 19:56:26;;;;;;;53.95;45.35;;;;;;;;;;10060154;28;20111;-73
2023/11/29 20:01:19;;;;;;;55.75;45.25;;;;;;;;;;10048751;28;20080;-74
2023/11/29 20:06:13;;;;;;;54.05;42.63;;;;;;;;;;10065561;28;20495;-73
2023/11/29 20:11:15;;;;;;;55.97;45.80;;;;;;;;;;10055584;28;20409;-74
2023/11/29 20:16:10;;;;;;;67.97;55.53;;;;;;;;;;10055868;28;20132;-73
2023/11/29 20:21:02;;;;;;;51.45;45.05;;;;;;;;;;10063962;28;20045;-74
2023/11/29 20:25:56;;;;;;;50.45;41.28;;;;;;;;;;10058628;28;20550;-73
2023/11/29 20:30:48;;;;;;;50.35;40.80;;;;;;;;;;10053526;28;20041;-73
2023/11/29 20:35:43;;;;;;;45.78;40.70;;;;;;;;;;10058844;28;20041;-74
2023/11/29 20:40:35;;;;;;;49.13;41.30;;;;;;;;;;10066795;28;20116;-73
2023/11/29 20:45:38;;;;;;;51.42;41.47;;;;;;;;;;10066337;28;20053;-73
2023/11/29 20:50:29;;;;;;;41.90;37.17;;;;;;;;;;10043601;28;20042;-73
2023/11/29 20:55:21;;;;;;;41.13;35.25;;;;;;;;;;10058615;28;20037;-74
2023/11/29 21:00:14;;;;;;;42.72;37.58;;;;;;;;;;10063117;28;20049;-76
2023/11/29 21:05:06;;;;;;;44.20;38.20;;;;;;;;;;10061827;28;20380;-77
2023/11/29 21:09:58;;;;;;;42.53;37.03;;;;;;;;;;10056920;28;20096;-77
2023/11/29 21:14:51;;;;;;;41.67;36.33;;;;;;;;;;10061712;28;20038;-76
2023/11/29 21:19:43;;;;;;;44.42;36.53;;;;;;;;;;10059127;28;20107;-76
2023/11/29 21:24:35;;;;;;;40.28;34.92;;;;;;;;;;10060723;28;20048;-76
2023/11/29 21:29:27;;;;;;;41.85;35.83;;;;;;;;;;10062257;28;20084;-76
2023/11/29 21:34:19;;;;;;;45.70;37.15;;;;;;;;;;10059307;28;20038;-76
2023/11/29 21:39:11;;;;;;;40.70;35.40;;;;;;;;;;10065867;28;20033;-76
2023/11/29 21:44:03;;;;;;;47.67;39.28;;;;;;;;;;10050229;28;20038;-76
2023/11/29 21:48:55;;;;;;;45.65;38.28;;;;;;;;;;10054233;28;20111;-76
2023/11/29 21:53:47;;;;;;;43.78;37.53;;;;;;;;;;10051525;28;20037;-76
2023/11/29 21:58:39;;;;;;;42.40;36.15;;;;;;;;;;10053842;28;20048;-76
2023/11/29 22:03:30;;;;;;;45.17;38.63;;;;;;;;;;10032978;28;20056;-76
2023/11/29 22:08:22;;;;;;;44.38;36.40;;;;;;;;;;10037687;28;20104;-76
2023/11/29 22:13:14;;;;;;;42.70;35.03;;;;;;;;;;10034222;28;20367;-76
2023/11/29 22:18:06;;;;;;;39.75;35.00;;;;;;;;;;10043014;28;20049;-76
2023/11/29 22:22:58;;;;;;;43.47;37.20;;;;;;;;;;10037483;28;20476;-77
2023/11/29 22:27:50;;;;;;;45.75;36.65;;;;;;;;;;10040735;28;20507;-76
2023/11/29 22:32:43;;;;;;;43.88;36.47;;;;;;;;;;10039746;28;20473;-76
2023/11/29 22:37:35;;;;;;;44.35;39.58;;;;;;;;;;10029054;28;20045;-76
2023/11/29 22:42:27;;;;;;;45.30;37.35;;;;;;;;;;10036330;28;20440;-77
2023/11/29 22:47:19;;;;;;;45.33;38.05;;;;;;;;;;10037463;28;20476;-76
2023/11/29 22:52:11;;;;;;;42.80;36.60;;;;;;;;;;10041090;28;20038;-76
2023/11/29 22:57:03;;;;;;;44.67;39.42;;;;;;;;;;10028331;28;20141;-76
2023/11/29 23:01:54;;;;;;;40.97;36.28;;;;;;;;;;10038761;28;20045;-76
2023/11/29 23:06:46;;;;;;;47.83;38.97;;;;;;;;;;10044728;28;20064;-76
2023/11/29 23:11:38;;;;;;;45.97;37.05;;;;;;;;;;10027632;28;20131;-76
2023/11/29 23:16:30;;;;;;;46.15;36.97;;;;;;;;;;10033332;28;20071;-76
2023/11/29 23:21:22;;;;;;;42.80;35.85;;;;;;;;;;10028278;28;20149;-76
2023/11/29 23:26:14;;;;;;;36.90;32.03;;;;;;;;;;10027261;28;20057;-76
2023/11/29 23:31:06;;;;;;;43.63;35.53;;;;;;;;;;10034089;28;20099;-76
2023/11/29 23:35:58;;;;;;;46.42;38.92;;;;;;;;;;10035606;28;20077;-76
2023/11/29 23:40:50;;;;;;;45.15;39.15;;;;;;;;;;10035443;28;20481;-76
2023/11/29 23:45:42;;;;;;;43.88;34.38;;;;;;;;;;10036261;28;20092;-76
2023/11/29 23:50:34;;;;;;;40.88;34.40;;;;;;;;;;10035199;28;20388;-76
2023/11/29 23:55:25;;;;;;;41.50;35.42;;;;;;;;;;10037155;28;20042;-76
